Irtyshsk, Kazakhstan
Current Conditions -  °F | °C
As of 6:30 AM on Monday 26 Jan 2015 (Local Time) from UASP Reporting Station
Clear Clear  
Wind Chill: -50°   Ceiling: Unl
Heat Index: -35°   Visibility: 6mi
Dew Point: -44°   Wind: 4mph
Humidity: 61%   Direction: 150°SSE
Pressure: 30.92"   Gusts: NA
Location:  53.33°N, 75.46°E
Report Text: UASP 260030Z 15002MPS CAVOK M37/M42 Q1047 R21/0///60 NOSIG RMKQFE774/1032
Loading
Personal Weather Stations






























Interactive Weather Map New forecast layout! Learn more

10-Day Weather Forecast

Advertisements
Track Severe Weather on mobile